createdAt,value
2018-07-14T00:00:01.973Z,0
2018-07-14T00:01:02.044Z,0
2018-07-14T00:02:01.978Z,0
2018-07-14T00:03:02.043Z,0
2018-07-14T00:04:01.977Z,0
2018-07-14T00:05:02.058Z,0
2018-07-14T00:06:02.046Z,0
2018-07-14T00:07:01.981Z,0
2018-07-14T00:08:01.984Z,0
2018-07-14T00:09:02.048Z,0
2018-07-14T00:10:02.145Z,0
2018-07-14T00:11:01.941Z,0
2018-07-14T00:12:01.982Z,0
2018-07-14T00:13:01.981Z,0
2018-07-14T00:14:01.994Z,0
2018-07-14T00:15:02.054Z,0
2018-07-14T00:16:02.052Z,0
2018-07-14T00:17:02.035Z,0
2018-07-14T00:18:01.988Z,0
2018-07-14T00:19:02.056Z,0
2018-07-14T00:20:01.996Z,0
2018-07-14T00:21:01.959Z,0
2018-07-14T00:22:02.021Z,0
2018-07-14T00:23:02.057Z,0
2018-07-14T00:24:02.011Z,0
2018-07-14T00:25:02.061Z,0
2018-07-14T00:26:02.081Z,0
2018-07-14T00:27:02.061Z,0
2018-07-14T00:28:02.036Z,0
2018-07-14T00:29:01.968Z,0
2018-07-14T00:30:02.096Z,0
2018-07-14T00:31:02.087Z,0
2018-07-14T00:32:02.045Z,0
2018-07-14T00:33:01.986Z,0
2018-07-14T00:34:02.009Z,0
2018-07-14T00:35:02.007Z,0
2018-07-14T00:36:02.090Z,0
2018-07-14T00:37:02.006Z,0
2018-07-14T00:38:02.035Z,0
2018-07-14T00:39:02.069Z,0
2018-07-14T00:40:02.058Z,0
2018-07-14T00:41:01.998Z,0
2018-07-14T00:42:02.014Z,0
2018-07-14T00:43:01.940Z,0
2018-07-14T00:44:01.946Z,0
2018-07-14T00:45:02.067Z,0
2018-07-14T00:46:02.124Z,0
2018-07-14T00:47:02.011Z,0
2018-07-14T00:48:02.065Z,0
2018-07-14T00:49:01.993Z,0
2018-07-14T00:50:02.068Z,0
2018-07-14T00:51:02.055Z,0
2018-07-14T00:52:01.982Z,0
2018-07-14T00:53:02.109Z,0
2018-07-14T00:54:02.018Z,0
2018-07-14T00:55:02.078Z,0
2018-07-14T00:56:01.985Z,0
2018-07-14T00:57:02.059Z,0
2018-07-14T00:58:02.008Z,0
2018-07-14T00:59:02.021Z,0
2018-07-14T01:00:02.115Z,0
2018-07-14T01:01:02.124Z,0
2018-07-14T01:02:02.106Z,0
2018-07-14T01:03:02.064Z,0
2018-07-14T01:04:02.086Z,0
2018-07-14T01:05:01.988Z,0
2018-07-14T01:06:02.054Z,0
2018-07-14T01:07:02.057Z,0
2018-07-14T01:08:02.116Z,0
2018-07-14T01:09:02.044Z,0
2018-07-14T01:10:02.113Z,0
2018-07-14T01:11:02.090Z,0
2018-07-14T01:12:02.015Z,0
2018-07-14T01:13:02.120Z,0
2018-07-14T01:14:02.128Z,0
2018-07-14T01:15:02.135Z,0
2018-07-14T01:16:02.037Z,0
2018-07-14T01:17:02.054Z,0
2018-07-14T01:18:02.070Z,0
2018-07-14T01:19:02.094Z,0
2018-07-14T01:20:02.075Z,0
2018-07-14T01:21:01.999Z,0
2018-07-14T01:22:02.098Z,0
2018-07-14T01:23:02.016Z,0
2018-07-14T01:24:02.132Z,0
2018-07-14T01:25:01.998Z,0
2018-07-14T01:26:02.023Z,0
2018-07-14T01:27:02.058Z,0
2018-07-14T01:28:02.075Z,0
2018-07-14T01:29:02.103Z,0
2018-07-14T01:30:02.040Z,0
2018-07-14T01:31:02.075Z,0
2018-07-14T01:32:02.106Z,0
2018-07-14T01:33:02.109Z,0
2018-07-14T01:34:02.037Z,0
2018-07-14T01:35:02.110Z,0
2018-07-14T01:36:02.038Z,0
2018-07-14T01:37:02.111Z,0
2018-07-14T01:38:02.043Z,0
2018-07-14T01:39:02.114Z,0
2018-07-14T01:40:02.044Z,0
2018-07-14T01:41:02.129Z,0
2018-07-14T01:42:02.113Z,0
2018-07-14T01:43:02.044Z,0
2018-07-14T01:44:02.114Z,0
2018-07-14T01:45:02.053Z,0
2018-07-14T01:46:02.112Z,0
2018-07-14T01:47:02.119Z,0
2018-07-14T01:48:02.115Z,0
2018-07-14T01:49:02.054Z,0
2018-07-14T01:50:02.119Z,0
2018-07-14T01:51:02.055Z,0
2018-07-14T01:52:02.056Z,0
2018-07-14T01:53:02.080Z,0
2018-07-14T01:54:02.118Z,0
2018-07-14T01:55:02.050Z,0
2018-07-14T01:56:02.124Z,0
2018-07-14T01:57:02.055Z,0
2018-07-14T01:58:02.123Z,0
2018-07-14T01:59:02.059Z,0
2018-07-14T02:00:02.129Z,0
2018-07-14T02:01:02.124Z,0
2018-07-14T02:02:02.069Z,0
2018-07-14T02:03:02.062Z,0
2018-07-14T02:04:02.124Z,0
2018-07-14T02:05:02.088Z,0
2018-07-14T02:06:02.131Z,0
2018-07-14T02:07:02.108Z,0
2018-07-14T02:08:02.063Z,0
2018-07-14T02:09:02.127Z,0
2018-07-14T02:10:02.166Z,0
2018-07-14T02:11:02.096Z,0
2018-07-14T02:12:02.052Z,0
2018-07-14T02:13:02.134Z,0
2018-07-14T02:14:02.132Z,0
2018-07-14T02:15:02.173Z,0
2018-07-14T02:16:02.040Z,0
2018-07-14T02:17:02.104Z,0
2018-07-14T02:18:02.152Z,0
2018-07-14T02:19:02.164Z,0
2018-07-14T02:20:02.122Z,0
2018-07-14T02:21:02.101Z,0
2018-07-14T02:22:02.138Z,0
2018-07-14T02:23:02.045Z,0
2018-07-14T02:24:02.110Z,0
2018-07-14T02:25:02.160Z,0
2018-07-14T02:26:02.107Z,0
2018-07-14T02:27:02.164Z,0
2018-07-14T02:28:02.143Z,0
2018-07-14T02:29:02.111Z,0
2018-07-14T02:30:02.049Z,4
2018-07-14T02:31:02.136Z,4
2018-07-14T02:32:02.063Z,4
2018-07-14T02:33:02.141Z,4
2018-07-14T02:34:02.068Z,4
2018-07-14T02:35:02.087Z,4
2018-07-14T02:36:02.079Z,4
2018-07-14T02:37:02.143Z,4
2018-07-14T02:38:02.148Z,4
2018-07-14T02:39:02.023Z,8
2018-07-14T02:40:02.085Z,8
2018-07-14T02:41:02.137Z,8
2018-07-14T02:42:02.134Z,8
2018-07-14T02:43:02.103Z,12
2018-07-14T02:44:02.103Z,12
2018-07-14T02:45:02.056Z,16
2018-07-14T02:46:02.136Z,16
2018-07-14T02:47:02.086Z,16
2018-07-14T02:48:02.023Z,24
2018-07-14T02:49:02.137Z,24
2018-07-14T02:50:02.061Z,28
2018-07-14T02:51:02.155Z,28
2018-07-14T02:52:02.122Z,36
2018-07-14T02:53:02.158Z,40
2018-07-14T02:54:02.127Z,44
2018-07-14T02:55:02.163Z,52
2018-07-14T02:56:02.205Z,60
2018-07-14T02:57:02.062Z,68
2018-07-14T02:58:02.142Z,80
2018-07-14T02:59:02.066Z,84
2018-07-14T03:00:02.192Z,96
2018-07-14T03:01:02.082Z,108
2018-07-14T03:02:02.110Z,124
2018-07-14T03:03:02.147Z,144
2018-07-14T03:04:02.202Z,156
2018-07-14T03:05:02.092Z,180
2018-07-14T03:06:02.202Z,200
2018-07-14T03:07:02.144Z,228
2018-07-14T03:08:02.168Z,252
2018-07-14T03:09:02.202Z,280
2018-07-14T03:10:02.158Z,308
2018-07-14T03:11:02.172Z,340
2018-07-14T03:12:02.206Z,376
2018-07-14T03:13:02.208Z,400
2018-07-14T03:14:02.091Z,440
2018-07-14T03:15:02.098Z,480
2018-07-14T03:16:02.205Z,520
2018-07-14T03:17:02.129Z,564
2018-07-14T03:18:02.173Z,612
2018-07-14T03:19:02.183Z,664
2018-07-14T03:20:02.083Z,716
2018-07-14T03:21:02.205Z,768
2018-07-14T03:22:02.119Z,824
2018-07-14T03:23:02.214Z,884
2018-07-14T03:24:02.163Z,952
2018-07-14T03:25:02.183Z,1016
2018-07-14T03:26:02.127Z,1080
2018-07-14T03:27:02.182Z,1156
2018-07-14T03:28:02.201Z,1228
2018-07-14T03:29:02.181Z,1304
2018-07-14T03:30:02.143Z,1388
2018-07-14T03:31:02.224Z,1476
2018-07-14T03:32:02.156Z,1556
2018-07-14T03:33:02.214Z,1644
2018-07-14T03:34:02.224Z,1736
2018-07-14T03:35:02.156Z,1828
2018-07-14T03:36:02.164Z,1924
2018-07-14T03:37:02.163Z,2024
2018-07-14T03:38:02.204Z,2124
2018-07-14T03:39:02.153Z,2224
2018-07-14T03:40:02.197Z,2332
2018-07-14T03:41:02.229Z,2432
2018-07-14T03:42:02.339Z,2540
2018-07-14T03:43:02.099Z,2644
2018-07-14T03:44:02.135Z,2756
2018-07-14T03:45:02.221Z,2872
2018-07-14T03:46:02.173Z,2988
2018-07-14T03:47:02.194Z,3100
2018-07-14T03:48:02.150Z,3224
2018-07-14T03:49:02.222Z,3348
2018-07-14T03:50:02.237Z,3480
2018-07-14T03:51:02.161Z,3604
2018-07-14T03:52:02.197Z,3744
2018-07-14T03:53:02.165Z,3872
2018-07-14T03:54:02.221Z,4008
2018-07-14T03:55:02.241Z,4152
2018-07-14T03:56:02.163Z,4296
2018-07-14T03:57:02.337Z,4444
2018-07-14T03:58:02.158Z,4584
2018-07-14T03:59:02.236Z,4720
2018-07-14T04:00:02.112Z,4812
2018-07-14T04:01:02.110Z,4952
2018-07-14T04:02:02.108Z,5076
2018-07-14T04:03:02.203Z,5212
2018-07-14T04:04:02.113Z,5340
2018-07-14T04:05:02.198Z,5472
2018-07-14T04:06:02.115Z,5612
2018-07-14T04:07:02.141Z,5740
2018-07-14T04:08:02.167Z,5900
2018-07-14T04:09:02.131Z,6044
2018-07-14T04:10:02.205Z,6208
2018-07-14T04:11:02.246Z,6360
2018-07-14T04:12:02.210Z,6520
2018-07-14T04:13:02.214Z,6676
2018-07-14T04:14:02.149Z,6844
2018-07-14T04:15:02.214Z,6984
2018-07-14T04:16:02.149Z,7136
2018-07-14T04:17:02.216Z,7284
2018-07-14T04:18:02.217Z,7424
2018-07-14T04:19:02.169Z,7556
2018-07-14T04:20:02.153Z,7700
2018-07-14T04:21:02.157Z,7844
2018-07-14T04:22:02.250Z,7996
2018-07-14T04:23:02.258Z,8160
2018-07-14T04:24:02.160Z,8340
2018-07-14T04:25:02.196Z,8532
2018-07-14T04:26:02.237Z,8712
2018-07-14T04:27:02.217Z,8876
2018-07-14T04:28:02.255Z,9036
2018-07-14T04:29:02.188Z,9220
2018-07-14T04:30:02.192Z,9400
2018-07-14T04:31:02.156Z,9580
2018-07-14T04:32:02.220Z,9776
2018-07-14T04:33:02.217Z,9956
2018-07-14T04:34:02.222Z,10140
2018-07-14T04:35:02.165Z,10332
2018-07-14T04:36:02.164Z,10516
2018-07-14T04:37:02.217Z,10692
2018-07-14T04:38:02.183Z,10864
2018-07-14T04:39:02.217Z,11028
2018-07-14T04:40:02.182Z,11180
2018-07-14T04:41:02.203Z,11316
2018-07-14T04:42:02.240Z,11488
2018-07-14T04:43:02.208Z,11668
2018-07-14T04:44:02.196Z,11864
2018-07-14T04:45:02.259Z,12080
2018-07-14T04:46:02.255Z,12336
2018-07-14T04:47:02.187Z,12588
2018-07-14T04:48:02.269Z,12776
2018-07-14T04:49:02.136Z,12868
2018-07-14T04:50:02.137Z,12980
2018-07-14T04:51:02.270Z,13088
2018-07-14T04:52:02.238Z,13200
2018-07-14T04:53:02.263Z,13280
2018-07-14T04:54:02.208Z,13356
2018-07-14T04:55:02.203Z,13428
2018-07-14T04:56:02.329Z,13516
2018-07-14T04:57:02.242Z,13620
2018-07-14T04:58:02.284Z,13732
2018-07-14T04:59:02.180Z,13832
2018-07-14T05:00:02.279Z,13960
2018-07-14T05:01:02.213Z,14128
2018-07-14T05:02:02.275Z,14276
2018-07-14T05:03:02.226Z,14416
2018-07-14T05:04:02.247Z,14548
2018-07-14T05:05:02.194Z,14676
2018-07-14T05:06:02.276Z,14804
2018-07-14T05:07:02.170Z,14940
2018-07-14T05:08:02.185Z,15076
2018-07-14T05:09:02.188Z,15200
2018-07-14T05:10:02.192Z,15308
2018-07-14T05:11:02.286Z,15396
2018-07-14T05:12:02.219Z,15472
2018-07-14T05:13:02.252Z,15556
2018-07-14T05:14:02.174Z,15660
2018-07-14T05:15:02.173Z,15792
2018-07-14T05:16:02.214Z,15932
2018-07-14T05:17:02.232Z,16064
2018-07-14T05:18:02.234Z,16232
2018-07-14T05:19:02.232Z,16400
2018-07-14T05:20:02.295Z,16580
2018-07-14T05:21:02.257Z,16736
2018-07-14T05:22:02.190Z,16876
2018-07-14T05:23:02.193Z,17040
2018-07-14T05:24:02.279Z,17176
2018-07-14T05:25:02.193Z,17364
2018-07-14T05:26:02.153Z,17560
2018-07-14T05:27:02.152Z,17792
2018-07-14T05:28:02.195Z,18036
2018-07-14T05:29:02.264Z,18320
2018-07-14T05:30:02.266Z,18580
2018-07-14T05:31:02.288Z,18856
2018-07-14T05:32:02.263Z,19084
2018-07-14T05:33:02.170Z,19360
2018-07-14T05:34:02.302Z,19572
2018-07-14T05:35:02.268Z,19724
2018-07-14T05:36:02.287Z,19860
2018-07-14T05:37:02.187Z,19928
2018-07-14T05:38:02.247Z,20000
2018-07-14T05:39:02.246Z,20084
2018-07-14T05:40:02.300Z,20160
2018-07-14T05:41:02.228Z,20260
2018-07-14T05:42:02.139Z,20364
2018-07-14T05:43:02.162Z,20468
2018-07-14T05:44:02.271Z,20628
2018-07-14T05:45:02.165Z,20808
2018-07-14T05:46:02.232Z,20948
2018-07-14T05:47:02.198Z,21124
2018-07-14T05:48:02.175Z,21320
2018-07-14T05:49:02.148Z,23520
2018-07-14T05:50:02.236Z,27648
2018-07-14T05:51:02.266Z,29472
2018-07-14T05:52:02.254Z,29856
2018-07-14T05:53:02.202Z,30336
2018-07-14T05:54:02.196Z,30432
2018-07-14T05:55:02.278Z,30496
2018-07-14T05:56:02.200Z,30560
2018-07-14T05:57:02.279Z,30784
2018-07-14T05:58:02.270Z,31040
2018-07-14T05:59:02.202Z,31392
2018-07-14T06:00:02.321Z,31392
2018-07-14T06:01:02.288Z,31296
2018-07-14T06:02:02.292Z,31648
2018-07-14T06:03:02.218Z,32128
2018-07-14T06:04:02.291Z,32512
2018-07-14T06:05:02.220Z,32896
2018-07-14T06:06:02.292Z,33504
2018-07-14T06:07:02.307Z,33760
2018-07-14T06:08:02.235Z,34080
2018-07-14T06:09:02.296Z,34080
2018-07-14T06:10:02.297Z,33952
2018-07-14T06:11:02.213Z,33952
2018-07-14T06:12:02.220Z,33568
2018-07-14T06:13:02.295Z,33408
2018-07-14T06:14:02.212Z,33600
2018-07-14T06:15:02.266Z,34304
2018-07-14T06:16:02.324Z,35296
2018-07-14T06:17:02.301Z,36480
2018-07-14T06:18:02.221Z,37792
2018-07-14T06:19:02.354Z,38784
2018-07-14T06:20:02.301Z,39840
2018-07-14T06:21:02.238Z,40800
2018-07-14T06:22:02.221Z,41952
2018-07-14T06:23:02.328Z,42432
2018-07-14T06:24:02.333Z,42336
2018-07-14T06:25:02.206Z,42336
2018-07-14T06:26:02.301Z,43008
2018-07-14T06:27:02.208Z,46432
2018-07-14T06:28:02.230Z,52064
2018-07-14T06:29:02.274Z,53312
2018-07-14T06:30:02.342Z,48096
2018-07-14T06:31:02.365Z,46496
2018-07-14T06:32:02.334Z,57696
2018-07-14T06:33:02.306Z,72064
2018-07-14T06:34:02.269Z,73472
2018-07-14T06:35:02.285Z,56576
2018-07-14T06:36:02.274Z,57824
2018-07-14T06:37:02.212Z,80960
2018-07-14T06:38:02.281Z,40672
2018-07-14T06:39:02.317Z,52128
2018-07-14T06:40:02.308Z,51840
2018-07-14T06:43:14.858Z,53088
2018-07-14T06:44:02.293Z,58880
2018-07-14T06:45:02.238Z,71104
2018-07-14T06:46:02.294Z,71968
2018-07-14T06:47:02.331Z,71680
2018-07-14T06:48:02.379Z,72000
2018-07-14T06:49:02.338Z,72480
2018-07-14T06:50:02.358Z,73504
2018-07-14T06:51:02.320Z,74816
2018-07-14T06:52:02.248Z,75296
2018-07-14T06:53:02.358Z,74624
2018-07-14T06:54:02.295Z,74592
2018-07-14T06:55:02.318Z,75520
2018-07-14T06:56:02.288Z,76256
2018-07-14T06:57:02.354Z,77696
2018-07-14T06:58:02.226Z,79232
2018-07-14T06:59:02.322Z,80224
2018-07-14T07:00:02.348Z,79840
2018-07-14T07:01:02.300Z,80096
2018-07-14T07:02:02.369Z,80256
2018-07-14T07:03:02.327Z,80896
2018-07-14T07:04:02.368Z,82944
2018-07-14T07:05:02.362Z,85536
2018-07-14T07:06:02.290Z,88640
2018-07-14T07:07:02.245Z,91104
2018-07-14T07:08:02.288Z,91712
2018-07-14T07:09:02.252Z,89792
2018-07-14T07:10:02.348Z,85888
2018-07-14T07:11:02.292Z,83008
2018-07-14T07:12:02.325Z,80320
2018-07-14T07:13:02.214Z,78240
2018-07-14T07:14:02.239Z,77792
2018-07-14T07:15:02.329Z,79712
2018-07-14T07:16:02.275Z,83200
2018-07-14T07:17:02.331Z,87488
2018-07-14T07:18:02.279Z,91552
2018-07-14T07:19:02.325Z,94528
2018-07-14T07:20:02.250Z,96928
2018-07-14T07:21:02.377Z,98848
2018-07-14T07:22:02.317Z,99616
2018-07-14T07:23:02.264Z,97696
2018-07-14T07:24:02.246Z,96192
2018-07-14T07:25:02.343Z,94720
2018-07-14T07:26:02.280Z,93952
2018-07-14T07:27:02.310Z,94400
2018-07-14T07:28:02.267Z,94816
2018-07-14T07:29:02.347Z,94816
2018-07-14T07:30:02.355Z,96160
2018-07-14T07:31:02.382Z,97376
2018-07-14T07:32:02.377Z,98240
2018-07-14T07:33:02.361Z,98592
2018-07-14T07:34:02.333Z,98752
2018-07-14T07:35:02.428Z,97632
2018-07-14T07:36:02.365Z,96416
2018-07-14T07:37:02.251Z,95904
2018-07-14T07:38:02.380Z,94720
2018-07-14T07:39:02.354Z,93920
2018-07-14T07:40:02.327Z,93312
2018-07-14T07:41:02.354Z,94784
2018-07-14T07:42:02.337Z,97920
2018-07-14T07:43:02.255Z,99776
2018-07-14T07:44:02.260Z,100416
2018-07-14T07:45:02.338Z,101856
2018-07-14T07:46:02.378Z,101856
2018-07-14T07:47:02.298Z,102752
2018-07-14T07:48:02.385Z,103680
2018-07-14T07:49:02.256Z,105056
2018-07-14T07:50:02.386Z,105472
2018-07-14T07:51:02.339Z,103520
2018-07-14T07:52:02.396Z,103360
2018-07-14T07:53:02.361Z,104416
2018-07-14T07:54:02.394Z,105344
2018-07-14T07:55:02.360Z,105856
2018-07-14T07:56:02.360Z,107136
2018-07-14T07:57:02.357Z,108800
2018-07-14T07:58:02.403Z,109504
2018-07-14T07:59:02.328Z,109056
2018-07-14T08:00:02.323Z,110208
2018-07-14T08:01:02.308Z,112896
2018-07-14T08:02:02.387Z,114880
2018-07-14T08:03:02.311Z,116320
2018-07-14T08:04:02.645Z,116576
2018-07-14T08:05:02.335Z,115328
2018-07-14T08:06:02.277Z,111776
2018-07-14T08:07:02.376Z,109344
2018-07-14T08:08:02.353Z,109376
2018-07-14T08:09:02.371Z,110944
2018-07-14T08:10:02.279Z,111776
2018-07-14T08:11:02.369Z,113792
2018-07-14T08:12:02.374Z,115168
2018-07-14T08:13:02.370Z,116032
2018-07-14T08:14:02.399Z,116160
2018-07-14T08:15:02.296Z,114368
2018-07-14T08:16:02.288Z,114400
2018-07-14T08:17:02.315Z,114880
2018-07-14T08:20:02.350Z,118624
2018-07-14T08:21:02.343Z,119488
2018-07-14T08:22:02.302Z,121856
2018-07-14T08:23:02.422Z,122080
2018-07-14T08:24:02.421Z,120672
2018-07-14T08:25:02.412Z,116864
2018-07-14T08:26:02.284Z,113888
2018-07-14T08:27:02.422Z,112128
2018-07-14T08:28:02.382Z,111040
2018-07-14T08:29:02.287Z,112864
2018-07-14T08:30:02.424Z,116064
2018-07-14T08:31:02.323Z,120544
2018-07-14T08:32:02.324Z,122752
2018-07-14T08:33:02.386Z,124608
2018-07-14T08:34:02.346Z,126016
2018-07-14T08:35:02.324Z,124768
2018-07-14T08:36:02.386Z,124640
2018-07-14T08:37:02.386Z,122496
2018-07-14T08:38:02.334Z,121728
2018-07-14T08:39:02.321Z,121600
2018-07-14T08:40:02.324Z,124160
2018-07-14T08:41:02.390Z,124864
2018-07-14T08:42:02.399Z,125376
2018-07-14T08:43:02.367Z,124640
2018-07-14T08:44:02.295Z,125504
2018-07-14T08:45:02.352Z,125728
2018-07-14T08:46:02.400Z,125408
2018-07-14T08:47:02.337Z,127168
2018-07-14T08:48:02.435Z,128416
2018-07-14T08:49:02.354Z,129344
2018-07-14T08:50:02.300Z,129216
2018-07-14T08:51:02.460Z,130656
2018-07-14T08:52:02.261Z,131520
2018-07-14T08:53:02.388Z,130592
2018-07-14T08:54:02.377Z,129280
2018-07-14T08:55:02.296Z,116416
2018-07-14T08:56:02.360Z,129728
2018-07-14T08:57:02.378Z,132960
2018-07-14T08:58:02.315Z,129216
2018-07-14T08:59:02.304Z,133024
2018-07-14T09:00:02.276Z,132288
2018-07-14T09:01:02.386Z,129472
2018-07-14T09:02:02.404Z,129472
2018-07-14T09:03:02.376Z,128768
2018-07-14T09:04:02.372Z,130784
2018-07-14T09:05:02.405Z,133760
2018-07-14T09:06:02.313Z,136352
2018-07-14T09:07:02.389Z,137792
2018-07-14T09:08:02.435Z,138720
2018-07-14T09:09:02.411Z,139232
2018-07-14T09:10:02.377Z,138848
2018-07-14T09:11:02.415Z,138336
2018-07-14T09:12:02.281Z,137632
2018-07-14T09:13:02.406Z,138144
2018-07-14T09:14:02.414Z,138432
2018-07-14T09:15:02.288Z,137536
2018-07-14T09:16:02.404Z,137920
2018-07-14T09:17:02.316Z,138496
2018-07-14T09:18:02.375Z,138688
2018-07-14T09:19:02.405Z,139008
2018-07-14T09:20:02.387Z,140640
2018-07-14T09:21:02.306Z,142336
2018-07-14T09:22:02.397Z,141408
2018-07-14T09:23:02.437Z,141600
2018-07-14T09:24:02.398Z,139232
2018-07-14T09:25:02.359Z,138976
2018-07-14T09:26:02.395Z,139040
2018-07-14T09:27:02.431Z,139712
2018-07-14T09:28:02.420Z,141344
2018-07-14T09:29:02.449Z,143296
2018-07-14T09:30:02.462Z,144160
2018-07-14T09:31:02.402Z,143616
2018-07-14T09:32:02.369Z,144224
2018-07-14T09:33:02.362Z,143712
2018-07-14T09:34:02.430Z,142784
2018-07-14T09:35:02.427Z,143840
2018-07-14T09:36:02.362Z,145536
2018-07-14T09:37:02.360Z,147328
2018-07-14T09:38:02.549Z,147136
2018-07-14T09:39:02.435Z,147008
2018-07-14T09:40:02.367Z,148192
2018-07-14T09:41:02.329Z,148064
2018-07-14T09:42:02.364Z,145248
2018-07-14T09:43:02.374Z,144064
2018-07-14T09:44:02.410Z,143008
2018-07-14T09:45:02.438Z,147712
2018-07-14T09:46:02.370Z,146272
2018-07-14T09:47:02.438Z,150048
2018-07-14T09:48:02.371Z,150432
2018-07-14T09:49:02.455Z,143008
2018-07-14T09:50:02.438Z,149696
2018-07-14T09:51:02.439Z,152480
2018-07-14T09:52:02.374Z,150976
2018-07-14T09:53:02.374Z,152704
2018-07-14T09:54:02.441Z,153152
2018-07-14T09:55:02.442Z,152256
2018-07-14T09:56:02.441Z,152384
2018-07-14T09:57:02.401Z,145248
2018-07-14T09:58:02.478Z,149312
2018-07-14T09:59:02.377Z,147776
2018-07-14T10:00:02.445Z,153440
2018-07-14T10:01:02.380Z,157280
2018-07-14T10:02:02.403Z,163392
2018-07-14T10:03:02.471Z,165504
2018-07-14T10:04:02.474Z,165248
2018-07-14T10:05:02.482Z,164256
2018-07-14T10:06:02.442Z,162336
2018-07-14T10:07:02.407Z,156640
2018-07-14T10:08:02.477Z,155328
2018-07-14T10:09:02.414Z,156032
2018-07-14T10:10:02.445Z,151584
2018-07-14T10:11:02.406Z,151200
2018-07-14T10:12:02.390Z,151008
2018-07-14T10:13:02.451Z,152800
2018-07-14T10:14:02.415Z,152416
2018-07-14T10:15:02.413Z,159136
2018-07-14T10:16:02.396Z,161728
2018-07-14T10:17:02.388Z,161408
2018-07-14T10:18:02.458Z,159936
2018-07-14T10:19:02.456Z,159520
2018-07-14T10:20:02.400Z,159424
2018-07-14T10:21:02.392Z,161888
2018-07-14T10:22:02.462Z,163872
2018-07-14T10:23:02.415Z,166816
2018-07-14T10:24:02.465Z,170240
2018-07-14T10:25:02.432Z,169920
2018-07-14T10:26:02.462Z,165312
2018-07-14T10:27:02.462Z,164096
2018-07-14T10:28:02.460Z,167296
2018-07-14T10:29:02.607Z,144896
2018-07-14T10:30:02.384Z,160288
2018-07-14T10:31:02.465Z,159040
2018-07-14T10:32:02.375Z,164448
2018-07-14T10:33:02.445Z,169824
2018-07-14T10:34:02.567Z,163968
2018-07-14T10:35:02.411Z,159264
2018-07-14T10:36:02.395Z,157024
2018-07-14T10:37:02.394Z,163008
2018-07-14T10:38:02.443Z,162432
2018-07-14T10:39:02.498Z,163648
2018-07-14T10:40:02.408Z,165504
2018-07-14T10:41:02.507Z,162656
2018-07-14T10:42:02.523Z,167648
2018-07-14T10:43:02.364Z,171296
2018-07-14T10:44:02.381Z,165184
2018-07-14T10:45:02.474Z,168672
2018-07-14T10:46:02.348Z,167520
2018-07-14T10:47:02.386Z,166464
2018-07-14T10:48:02.476Z,163488
2018-07-14T10:49:02.382Z,160992
2018-07-14T10:50:02.503Z,143456
2018-07-14T10:51:02.399Z,167200
2018-07-14T10:52:02.478Z,166848
2018-07-14T10:53:02.418Z,167840
2018-07-14T10:54:02.522Z,167360
2018-07-14T10:55:02.489Z,163872
2018-07-14T10:56:02.426Z,162560
2018-07-14T10:57:02.517Z,162752
2018-07-14T10:58:02.462Z,161536
2018-07-14T10:59:02.467Z,164128
2018-07-14T11:00:02.516Z,166880
2018-07-14T11:01:02.454Z,171328
2018-07-14T11:02:02.478Z,177952
2018-07-14T11:03:02.467Z,175392
2018-07-14T11:04:02.346Z,179744
2018-07-14T11:05:02.378Z,177472
2018-07-14T11:06:02.385Z,170144
2018-07-14T11:07:02.357Z,164416
2018-07-14T11:08:02.413Z,132608
2018-07-14T11:09:02.384Z,57888
2018-07-14T11:10:02.464Z,47616
2018-07-14T11:11:02.416Z,43520
2018-07-14T11:12:02.567Z,42752
2018-07-14T11:13:02.447Z,56544
2018-07-14T11:14:02.415Z,45792
2018-07-14T11:15:02.478Z,47904
2018-07-14T11:16:02.368Z,49792
2018-07-14T11:17:02.451Z,77216
2018-07-14T11:18:02.421Z,63264
2018-07-14T11:19:02.391Z,129248
2018-07-14T11:20:02.362Z,162592
2018-07-14T11:21:02.436Z,81856
2018-07-14T11:22:02.502Z,53280
2018-07-14T11:23:02.462Z,61088
2018-07-14T11:24:02.498Z,171616
2018-07-14T11:25:02.429Z,71904
2018-07-14T11:26:02.504Z,162944
2018-07-14T11:27:02.433Z,163456
2018-07-14T11:28:02.448Z,162368
2018-07-14T11:29:02.448Z,165760
2018-07-14T11:30:02.507Z,170624
2018-07-14T11:31:02.454Z,170048
2018-07-14T11:32:02.491Z,169408
2018-07-14T11:33:02.413Z,168512
2018-07-14T11:34:02.517Z,171168
2018-07-14T11:35:02.508Z,171168
2018-07-14T11:36:02.542Z,175552
2018-07-14T11:37:02.453Z,167424
2018-07-14T11:38:02.485Z,173088
2018-07-14T11:39:02.491Z,170144
2018-07-14T11:40:02.513Z,178912
2018-07-14T11:41:02.513Z,179680
2018-07-14T11:42:02.470Z,73344
2018-07-14T11:43:02.402Z,181376
2018-07-14T11:44:02.406Z,108800
2018-07-14T11:45:02.408Z,185440
2018-07-14T11:46:02.412Z,182944
2018-07-14T11:47:02.526Z,176032
2018-07-14T11:48:02.527Z,57600
2018-07-14T11:49:02.398Z,59072
2018-07-14T11:50:02.413Z,69184
2018-07-14T11:51:02.418Z,185440
2018-07-14T11:52:02.521Z,141728
2018-07-14T11:53:02.424Z,194208
2018-07-14T11:54:02.479Z,188608
2018-07-14T11:55:02.495Z,181568
2018-07-14T11:56:02.557Z,152704
2018-07-14T11:57:02.560Z,49536
2018-07-14T11:58:02.521Z,43200
2018-07-14T11:59:02.492Z,42368
2018-07-14T12:00:02.486Z,43008
2018-07-14T12:01:02.542Z,41760
2018-07-14T12:02:02.446Z,39552
2018-07-14T12:03:02.399Z,38112
2018-07-14T12:04:02.457Z,36512
2018-07-14T12:05:02.523Z,37120
2018-07-14T12:06:02.506Z,38336
2018-07-14T12:07:02.401Z,37952
2018-07-14T12:08:02.527Z,36096
2018-07-14T12:09:02.522Z,36352
2018-07-14T12:10:02.527Z,37792
2018-07-14T12:11:02.474Z,40992
2018-07-14T12:12:02.534Z,45344
2018-07-14T12:13:02.472Z,39360
2018-07-14T12:14:02.472Z,36480
2018-07-14T12:15:02.472Z,35552
2018-07-14T12:16:02.473Z,36672
2018-07-14T12:17:02.536Z,38944
2018-07-14T12:19:02.592Z,46912
2018-07-14T12:20:02.539Z,53216
2018-07-14T12:21:02.470Z,77472
2018-07-14T12:22:02.449Z,86432
2018-07-14T12:23:02.620Z,176448
2018-07-14T12:24:02.452Z,177376
2018-07-14T12:25:02.421Z,173184
2018-07-14T12:26:02.531Z,61984
2018-07-14T12:27:02.535Z,66496
2018-07-14T12:28:02.458Z,65184
2018-07-14T12:29:02.532Z,68320
2018-07-14T12:30:02.546Z,56672
2018-07-14T12:31:02.536Z,47584
2018-07-14T12:32:02.549Z,40640
2018-07-14T12:33:02.554Z,36384
2018-07-14T12:34:02.484Z,32992
2018-07-14T12:35:02.549Z,30016
2018-07-14T12:36:02.665Z,28416
2018-07-14T12:37:02.551Z,27744
2018-07-14T12:38:02.484Z,27808
2018-07-14T12:39:02.458Z,28736
2018-07-14T12:40:02.486Z,30144
2018-07-14T12:41:02.556Z,32416
2018-07-14T12:42:02.538Z,33952
2018-07-14T12:43:02.516Z,33408
2018-07-14T12:44:02.536Z,32416
2018-07-14T12:45:02.570Z,31872
2018-07-14T12:46:02.517Z,32480
2018-07-14T12:47:02.574Z,33216
2018-07-14T12:48:02.590Z,35104
2018-07-14T12:49:02.556Z,38080
2018-07-14T12:50:02.574Z,40928
2018-07-14T12:51:02.513Z,45024
2018-07-14T12:52:02.479Z,49408
2018-07-14T12:53:02.563Z,54720
2018-07-14T12:54:02.562Z,57568
2018-07-14T12:55:02.523Z,57440
2018-07-14T12:56:02.565Z,56672
2018-07-14T12:57:02.579Z,55488
2018-07-14T12:58:02.547Z,54976
2018-07-14T12:59:02.488Z,64480
2018-07-14T13:00:02.538Z,74624
2018-07-14T13:01:02.584Z,113696
2018-07-14T13:02:02.531Z,87968
2018-07-14T13:03:02.599Z,65536
2018-07-14T13:04:02.597Z,168992
2018-07-14T13:05:02.513Z,151328
2018-07-14T13:06:02.601Z,62016
2018-07-14T13:07:02.548Z,87360
2018-07-14T13:08:02.536Z,91872
2018-07-14T13:09:02.612Z,53056
2018-07-14T13:10:02.606Z,51168
2018-07-14T13:11:02.538Z,56992
2018-07-14T13:12:02.475Z,56672
2018-07-14T13:13:02.603Z,58912
2018-07-14T13:14:02.603Z,59968
2018-07-14T13:15:02.599Z,159008
2018-07-14T13:16:02.560Z,163872